6B0

Middlebury State Airport

Middlebury, Vermont, USA
METAR K6B0 151235Z AUTO 00000KT 10SM SCT007 BKN018 OVC040 21/19 A2987 RMK AO2 T02070194
Observed Flight Rules
Aug-15 @ 12:35 UTC (5 minutes ago) Marginal Visual Flight Rules
Visibility Clouds
10 miles
  • Scattered at 700' AGL
  • Broken at 1,800' AGL
  • Overcast at 4,000' AGL
Temperatures Readings
Current 21°C / 70°F
Dewpoint 19°C / 66°F
Humidity 88%
Altimeter 29.87" Hg
Pressure 1012 hPa
Elevation 149
METAR K6B0 151235Z AUTO 00000KT 10SM SCT007 BKN018 OVC040 21/19 A2987 RMK AO2 T02070194
Observed Flight Rules
Aug-15 @ 12:35 UTC
(5 minutes ago)
MVFR
Clouds
  • Scattered at 700' AGL
  • Broken at 1,800' AGL
  • Overcast at 4,000' AGL
Temperature Dewpoint
21°C / 70°F 19°C / 66°F
Humidity Altimeter Pressure
88% 29.87" Hg 1012 hPa